sensor_id;sensor_type;location;lat;lon;timestamp;P1;durP1;ratioP1;P2;durP2;ratioP2
20251;SDS011;10284;58.364;15.550;2023-06-22T00:01:21;17.00;;;11.13;;
20251;SDS011;10284;58.364;15.550;2023-06-22T00:03:50;15.60;;;10.98;;
20251;SDS011;10284;58.364;15.550;2023-06-22T00:06:15;21.27;;;11.20;;
20251;SDS011;10284;58.364;15.550;2023-06-22T00:08:41;15.75;;;11.15;;
20251;SDS011;10284;58.364;15.550;2023-06-22T00:11:06;13.82;;;10.23;;
20251;SDS011;10284;58.364;15.550;2023-06-22T00:13:32;15.70;;;11.20;;
20251;SDS011;10284;58.364;15.550;2023-06-22T00:15:57;13.10;;;10.02;;
20251;SDS011;10284;58.364;15.550;2023-06-22T00:18:23;17.42;;;10.98;;
20251;SDS011;10284;58.364;15.550;2023-06-22T00:20:52;15.32;;;10.32;;
20251;SDS011;10284;58.364;15.550;2023-06-22T00:23:22;15.63;;;9.85;;
20251;SDS011;10284;58.364;15.550;2023-06-22T00:25:48;14.23;;;9.90;;
20251;SDS011;10284;58.364;15.550;2023-06-22T00:28:14;15.15;;;10.45;;
20251;SDS011;10284;58.364;15.550;2023-06-22T00:30:39;13.50;;;10.32;;
20251;SDS011;10284;58.364;15.550;2023-06-22T00:33:05;16.50;;;10.68;;
20251;SDS011;10284;58.364;15.550;2023-06-22T00:35:32;15.02;;;10.07;;
20251;SDS011;10284;58.364;15.550;2023-06-22T00:37:58;14.18;;;9.88;;
20251;SDS011;10284;58.364;15.550;2023-06-22T00:40:29;15.63;;;9.63;;
20251;SDS011;10284;58.364;15.550;2023-06-22T00:42:55;9.95;;;8.25;;
20251;SDS011;10284;58.364;15.550;2023-06-22T00:45:24;12.30;;;8.35;;
20251;SDS011;10284;58.364;15.550;2023-06-22T00:47:53;13.13;;;8.00;;
20251;SDS011;10284;58.364;15.550;2023-06-22T00:50:22;11.30;;;7.75;;
20251;SDS011;10284;58.364;15.550;2023-06-22T00:52:53;10.23;;;7.07;;
20251;SDS011;10284;58.364;15.550;2023-06-22T00:55:21;14.07;;;7.65;;
20251;SDS011;10284;58.364;15.550;2023-06-22T00:57:48;11.60;;;7.47;;
20251;SDS011;10284;58.364;15.550;2023-06-22T01:00:14;12.77;;;7.05;;
20251;SDS011;10284;58.364;15.550;2023-06-22T01:02:45;10.27;;;6.47;;
20251;SDS011;10284;58.364;15.550;2023-06-22T01:05:14;14.40;;;6.88;;
20251;SDS011;10284;58.364;15.550;2023-06-22T01:15:59;18.90;;;6.65;;
20251;SDS011;10284;58.364;15.550;2023-06-22T01:18:46;10.07;;;5.68;;
20251;SDS011;10284;58.364;15.550;2023-06-22T01:21:14;9.27;;;5.50;;
20251;SDS011;10284;58.364;15.550;2023-06-22T01:29:57;9.43;;;4.90;;
20251;SDS011;10284;58.364;15.550;2023-06-22T01:32:32;6.82;;;4.40;;
20251;SDS011;10284;58.364;15.550;2023-06-22T01:34:58;6.13;;;4.20;;
20251;SDS011;10284;58.364;15.550;2023-06-22T01:37:25;9.77;;;4.55;;
20251;SDS011;10284;58.364;15.550;2023-06-22T01:39:52;6.88;;;3.65;;
20251;SDS011;10284;58.364;15.550;2023-06-22T01:42:19;7.47;;;3.80;;
20251;SDS011;10284;58.364;15.550;2023-06-22T01:44:44;8.48;;;4.10;;
20251;SDS011;10284;58.364;15.550;2023-06-22T01:47:10;6.97;;;3.92;;
20251;SDS011;10284;58.364;15.550;2023-06-22T01:49:38;5.70;;;4.00;;
20251;SDS011;10284;58.364;15.550;2023-06-22T01:52:05;9.15;;;4.35;;
20251;SDS011;10284;58.364;15.550;2023-06-22T01:54:31;8.43;;;3.50;;
20251;SDS011;10284;58.364;15.550;2023-06-22T01:56:56;8.00;;;3.97;;
20251;SDS011;10284;58.364;15.550;2023-06-22T01:59:25;8.13;;;3.92;;
20251;SDS011;10284;58.364;15.550;2023-06-22T02:02:01;7.65;;;4.07;;
20251;SDS011;10284;58.364;15.550;2023-06-22T02:04:32;8.80;;;4.07;;
20251;SDS011;10284;58.364;15.550;2023-06-22T02:07:01;5.50;;;4.05;;
20251;SDS011;10284;58.364;15.550;2023-06-22T02:09:30;9.18;;;4.20;;
20251;SDS011;10284;58.364;15.550;2023-06-22T02:11:56;8.00;;;4.13;;
20251;SDS011;10284;58.364;15.550;2023-06-22T02:14:23;5.93;;;4.22;;
20251;SDS011;10284;58.364;15.550;2023-06-22T02:16:50;7.63;;;4.05;;
20251;SDS011;10284;58.364;15.550;2023-06-22T02:19:16;7.63;;;3.90;;
20251;SDS011;10284;58.364;15.550;2023-06-22T02:21:43;7.40;;;4.32;;
20251;SDS011;10284;58.364;15.550;2023-06-22T02:24:09;9.35;;;4.05;;
20251;SDS011;10284;58.364;15.550;2023-06-22T02:26:35;6.03;;;4.00;;
20251;SDS011;10284;58.364;15.550;2023-06-22T02:29:02;9.30;;;4.60;;
20251;SDS011;10284;58.364;15.550;2023-06-22T02:31:27;9.52;;;4.28;;
20251;SDS011;10284;58.364;15.550;2023-06-22T02:33:55;6.35;;;4.20;;
20251;SDS011;10284;58.364;15.550;2023-06-22T02:36:23;6.47;;;3.97;;
20251;SDS011;10284;58.364;15.550;2023-06-22T02:38:51;8.70;;;4.20;;
20251;SDS011;10284;58.364;15.550;2023-06-22T02:41:17;7.53;;;4.20;;
20251;SDS011;10284;58.364;15.550;2023-06-22T02:43:46;9.75;;;4.50;;
20251;SDS011;10284;58.364;15.550;2023-06-22T02:46:12;6.68;;;4.18;;
20251;SDS011;10284;58.364;15.550;2023-06-22T02:48:41;9.98;;;4.47;;
20251;SDS011;10284;58.364;15.550;2023-06-22T02:51:07;7.45;;;4.38;;
20251;SDS011;10284;58.364;15.550;2023-06-22T02:53:32;7.68;;;4.40;;
20251;SDS011;10284;58.364;15.550;2023-06-22T02:55:58;8.40;;;4.70;;
20251;SDS011;10284;58.364;15.550;2023-06-22T02:58:26;6.20;;;4.13;;
20251;SDS011;10284;58.364;15.550;2023-06-22T03:00:51;9.75;;;4.15;;
20251;SDS011;10284;58.364;15.550;2023-06-22T03:03:18;8.68;;;4.28;;
20251;SDS011;10284;58.364;15.550;2023-06-22T03:05:44;8.23;;;5.05;;
20251;SDS011;10284;58.364;15.550;2023-06-22T03:08:10;7.57;;;4.13;;
20251;SDS011;10284;58.364;15.550;2023-06-22T03:10:35;8.85;;;5.00;;
20251;SDS011;10284;58.364;15.550;2023-06-22T03:13:01;8.25;;;3.92;;
20251;SDS011;10284;58.364;15.550;2023-06-22T03:15:26;6.50;;;4.22;;
20251;SDS011;10284;58.364;15.550;2023-06-22T03:17:54;8.15;;;4.50;;
20251;SDS011;10284;58.364;15.550;2023-06-22T03:20:19;7.85;;;4.40;;
20251;SDS011;10284;58.364;15.550;2023-06-22T03:22:45;7.43;;;4.43;;
20251;SDS011;10284;58.364;15.550;2023-06-22T03:25:10;9.30;;;4.70;;
20251;SDS011;10284;58.364;15.550;2023-06-22T03:27:38;11.38;;;5.18;;
20251;SDS011;10284;58.364;15.550;2023-06-22T03:30:04;6.57;;;5.05;;
20251;SDS011;10284;58.364;15.550;2023-06-22T03:32:30;5.80;;;4.35;;
20251;SDS011;10284;58.364;15.550;2023-06-22T03:34:56;11.02;;;4.72;;
20251;SDS011;10284;58.364;15.550;2023-06-22T03:37:24;10.02;;;5.30;;
20251;SDS011;10284;58.364;15.550;2023-06-22T03:39:52;9.75;;;5.20;;
20251;SDS011;10284;58.364;15.550;2023-06-22T03:42:17;10.57;;;5.22;;
20251;SDS011;10284;58.364;15.550;2023-06-22T03:44:43;10.23;;;4.95;;
20251;SDS011;10284;58.364;15.550;2023-06-22T03:47:09;8.48;;;5.25;;
20251;SDS011;10284;58.364;15.550;2023-06-22T03:49:34;11.57;;;5.50;;
20251;SDS011;10284;58.364;15.550;2023-06-22T03:52:00;10.30;;;5.35;;
20251;SDS011;10284;58.364;15.550;2023-06-22T03:54:27;9.02;;;5.38;;
20251;SDS011;10284;58.364;15.550;2023-06-22T03:56:53;8.63;;;5.57;;
20251;SDS011;10284;58.364;15.550;2023-06-22T03:59:19;7.75;;;5.03;;
20251;SDS011;10284;58.364;15.550;2023-06-22T04:01:44;10.10;;;5.00;;
20251;SDS011;10284;58.364;15.550;2023-06-22T04:04:10;10.25;;;5.10;;
20251;SDS011;10284;58.364;15.550;2023-06-22T04:06:35;12.55;;;6.28;;
20251;SDS011;10284;58.364;15.550;2023-06-22T04:09:01;8.70;;;5.40;;
20251;SDS011;10284;58.364;15.550;2023-06-22T04:11:26;10.80;;;5.88;;
20251;SDS011;10284;58.364;15.550;2023-06-22T04:13:52;10.90;;;5.70;;
20251;SDS011;10284;58.364;15.550;2023-06-22T04:16:18;9.40;;;5.72;;
20251;SDS011;10284;58.364;15.550;2023-06-22T04:18:43;8.88;;;4.32;;
20251;SDS011;10284;58.364;15.550;2023-06-22T04:21:09;11.10;;;6.00;;
20251;SDS011;10284;58.364;15.550;2023-06-22T04:23:35;9.55;;;5.05;;
20251;SDS011;10284;58.364;15.550;2023-06-22T04:26:00;8.18;;;5.88;;
20251;SDS011;10284;58.364;15.550;2023-06-22T04:28:26;8.23;;;5.60;;
20251;SDS011;10284;58.364;15.550;2023-06-22T04:30:51;8.95;;;5.88;;
20251;SDS011;10284;58.364;15.550;2023-06-22T04:33:17;8.10;;;5.45;;
20251;SDS011;10284;58.364;15.550;2023-06-22T04:35:44;11.43;;;5.57;;
20251;SDS011;10284;58.364;15.550;2023-06-22T04:38:11;8.85;;;5.28;;
20251;SDS011;10284;58.364;15.550;2023-06-22T04:40:38;8.52;;;5.03;;
20251;SDS011;10284;58.364;15.550;2023-06-22T04:43:04;10.45;;;5.15;;
20251;SDS011;10284;58.364;15.550;2023-06-22T04:45:31;7.88;;;5.10;;
20251;SDS011;10284;58.364;15.550;2023-06-22T04:47:57;9.63;;;5.55;;
20251;SDS011;10284;58.364;15.550;2023-06-22T04:50:22;12.55;;;5.05;;
20251;SDS011;10284;58.364;15.550;2023-06-22T04:52:48;7.25;;;4.88;;
20251;SDS011;10284;58.364;15.550;2023-06-22T04:55:14;10.00;;;5.45;;
20251;SDS011;10284;58.364;15.550;2023-06-22T04:57:46;8.55;;;5.45;;
20251;SDS011;10284;58.364;15.550;2023-06-22T05:00:16;7.78;;;5.05;;
20251;SDS011;10284;58.364;15.550;2023-06-22T05:02:43;10.13;;;5.25;;
20251;SDS011;10284;58.364;15.550;2023-06-22T05:05:10;12.20;;;5.85;;
20251;SDS011;10284;58.364;15.550;2023-06-22T05:07:39;10.90;;;5.15;;
20251;SDS011;10284;58.364;15.550;2023-06-22T05:10:08;17.42;;;5.90;;
20251;SDS011;10284;58.364;15.550;2023-06-22T05:12:35;7.03;;;5.20;;
20251;SDS011;10284;58.364;15.550;2023-06-22T05:15:00;11.30;;;5.60;;
20251;SDS011;10284;58.364;15.550;2023-06-22T05:17:26;8.18;;;5.45;;
20251;SDS011;10284;58.364;15.550;2023-06-22T05:19:52;9.52;;;5.35;;
20251;SDS011;10284;58.364;15.550;2023-06-22T05:22:18;7.05;;;5.50;;
20251;SDS011;10284;58.364;15.550;2023-06-22T05:24:43;10.57;;;5.05;;
20251;SDS011;10284;58.364;15.550;2023-06-22T05:27:09;11.57;;;5.38;;
20251;SDS011;10284;58.364;15.550;2023-06-22T05:29:35;12.30;;;5.80;;
20251;SDS011;10284;58.364;15.550;2023-06-22T05:32:01;9.18;;;5.60;;
20251;SDS011;10284;58.364;15.550;2023-06-22T05:34:27;8.98;;;5.45;;
20251;SDS011;10284;58.364;15.550;2023-06-22T05:36:52;8.45;;;5.68;;
20251;SDS011;10284;58.364;15.550;2023-06-22T05:39:18;9.13;;;5.63;;
20251;SDS011;10284;58.364;15.550;2023-06-22T05:41:44;10.07;;;4.65;;
20251;SDS011;10284;58.364;15.550;2023-06-22T05:44:10;19.90;;;5.70;;
20251;SDS011;10284;58.364;15.550;2023-06-22T05:46:36;8.43;;;5.20;;
20251;SDS011;10284;58.364;15.550;2023-06-22T05:49:01;9.18;;;5.30;;
20251;SDS011;10284;58.364;15.550;2023-06-22T05:51:27;11.43;;;5.22;;
20251;SDS011;10284;58.364;15.550;2023-06-22T05:53:52;7.30;;;4.93;;
20251;SDS011;10284;58.364;15.550;2023-06-22T05:56:18;9.90;;;5.30;;
20251;SDS011;10284;58.364;15.550;2023-06-22T05:58:43;11.55;;;5.20;;
20251;SDS011;10284;58.364;15.550;2023-06-22T06:01:09;7.05;;;4.82;;
20251;SDS011;10284;58.364;15.550;2023-06-22T06:03:34;11.20;;;5.35;;
20251;SDS011;10284;58.364;15.550;2023-06-22T06:06:06;11.77;;;5.50;;
20251;SDS011;10284;58.364;15.550;2023-06-22T06:08:32;8.57;;;4.70;;
20251;SDS011;10284;58.364;15.550;2023-06-22T06:10:57;12.45;;;4.85;;
20251;SDS011;10284;58.364;15.550;2023-06-22T06:13:23;8.65;;;4.88;;
20251;SDS011;10284;58.364;15.550;2023-06-22T06:15:48;8.98;;;4.78;;
20251;SDS011;10284;58.364;15.550;2023-06-22T06:18:16;9.93;;;4.80;;
20251;SDS011;10284;58.364;15.550;2023-06-22T06:20:42;9.13;;;4.95;;
20251;SDS011;10284;58.364;15.550;2023-06-22T06:23:07;9.95;;;4.95;;
20251;SDS011;10284;58.364;15.550;2023-06-22T06:25:33;12.70;;;5.25;;
20251;SDS011;10284;58.364;15.550;2023-06-22T06:27:58;12.07;;;5.25;;
20251;SDS011;10284;58.364;15.550;2023-06-22T06:30:23;9.70;;;4.95;;
20251;SDS011;10284;58.364;15.550;2023-06-22T06:32:49;12.85;;;4.72;;
20251;SDS011;10284;58.364;15.550;2023-06-22T06:35:15;10.02;;;5.05;;
20251;SDS011;10284;58.364;15.550;2023-06-22T06:37:42;10.25;;;4.93;;
20251;SDS011;10284;58.364;15.550;2023-06-22T06:40:10;8.93;;;4.45;;
20251;SDS011;10284;58.364;15.550;2023-06-22T06:42:37;11.15;;;4.80;;
20251;SDS011;10284;58.364;15.550;2023-06-22T06:45:05;8.35;;;4.50;;
20251;SDS011;10284;58.364;15.550;2023-06-22T06:47:31;7.95;;;4.10;;
20251;SDS011;10284;58.364;15.550;2023-06-22T06:49:56;8.23;;;4.45;;
20251;SDS011;10284;58.364;15.550;2023-06-22T06:52:22;11.70;;;4.35;;
20251;SDS011;10284;58.364;15.550;2023-06-22T06:54:48;8.65;;;4.78;;
20251;SDS011;10284;58.364;15.550;2023-06-22T06:57:13;12.57;;;5.18;;
20251;SDS011;10284;58.364;15.550;2023-06-22T06:59:40;8.75;;;4.40;;
20251;SDS011;10284;58.364;15.550;2023-06-22T07:02:05;6.47;;;4.15;;
20251;SDS011;10284;58.364;15.550;2023-06-22T07:04:30;9.65;;;4.60;;
20251;SDS011;10284;58.364;15.550;2023-06-22T07:06:56;10.85;;;4.47;;
20251;SDS011;10284;58.364;15.550;2023-06-22T07:09:23;11.45;;;4.95;;
20251;SDS011;10284;58.364;15.550;2023-06-22T07:11:49;6.63;;;3.97;;
20251;SDS011;10284;58.364;15.550;2023-06-22T07:14:14;12.80;;;4.50;;
20251;SDS011;10284;58.364;15.550;2023-06-22T07:16:39;7.97;;;4.40;;
20251;SDS011;10284;58.364;15.550;2023-06-22T07:19:05;7.90;;;4.78;;
20251;SDS011;10284;58.364;15.550;2023-06-22T07:21:32;8.90;;;4.43;;
20251;SDS011;10284;58.364;15.550;2023-06-22T07:23:57;11.68;;;4.82;;
20251;SDS011;10284;58.364;15.550;2023-06-22T07:26:23;6.40;;;4.30;;
20251;SDS011;10284;58.364;15.550;2023-06-22T07:28:48;9.32;;;4.22;;
20251;SDS011;10284;58.364;15.550;2023-06-22T07:31:15;8.52;;;4.30;;
20251;SDS011;10284;58.364;15.550;2023-06-22T07:33:41;9.50;;;4.72;;
20251;SDS011;10284;58.364;15.550;2023-06-22T07:36:06;8.52;;;4.40;;
20251;SDS011;10284;58.364;15.550;2023-06-22T07:38:33;8.55;;;4.68;;
20251;SDS011;10284;58.364;15.550;2023-06-22T07:40:59;9.80;;;4.38;;
20251;SDS011;10284;58.364;15.550;2023-06-22T07:43:25;8.10;;;4.28;;
20251;SDS011;10284;58.364;15.550;2023-06-22T07:45:50;8.40;;;3.60;;
20251;SDS011;10284;58.364;15.550;2023-06-22T07:48:20;8.50;;;4.22;;
20251;SDS011;10284;58.364;15.550;2023-06-22T07:50:47;7.30;;;4.18;;
20251;SDS011;10284;58.364;15.550;2023-06-22T07:53:13;7.20;;;3.67;;
20251;SDS011;10284;58.364;15.550;2023-06-22T07:55:38;7.63;;;4.13;;
20251;SDS011;10284;58.364;15.550;2023-06-22T07:58:04;11.82;;;4.13;;
20251;SDS011;10284;58.364;15.550;2023-06-22T08:00:29;9.23;;;4.15;;
20251;SDS011;10284;58.364;15.550;2023-06-22T08:02:54;9.38;;;4.20;;
20251;SDS011;10284;58.364;15.550;2023-06-22T08:05:20;5.88;;;3.88;;
20251;SDS011;10284;58.364;15.550;2023-06-22T08:07:46;9.15;;;3.72;;
20251;SDS011;10284;58.364;15.550;2023-06-22T08:10:11;7.45;;;4.18;;
20251;SDS011;10284;58.364;15.550;2023-06-22T08:12:37;6.72;;;4.00;;
20251;SDS011;10284;58.364;15.550;2023-06-22T08:15:03;10.15;;;3.90;;
20251;SDS011;10284;58.364;15.550;2023-06-22T08:17:29;7.78;;;4.40;;
20251;SDS011;10284;58.364;15.550;2023-06-22T08:19:56;9.25;;;4.25;;
20251;SDS011;10284;58.364;15.550;2023-06-22T08:22:21;5.75;;;3.72;;
20251;SDS011;10284;58.364;15.550;2023-06-22T08:24:47;7.93;;;4.43;;
20251;SDS011;10284;58.364;15.550;2023-06-22T08:27:12;7.95;;;4.47;;
20251;SDS011;10284;58.364;15.550;2023-06-22T08:29:38;6.22;;;3.80;;
20251;SDS011;10284;58.364;15.550;2023-06-22T08:32:04;10.50;;;4.15;;
20251;SDS011;10284;58.364;15.550;2023-06-22T08:34:30;7.88;;;4.38;;
20251;SDS011;10284;58.364;15.550;2023-06-22T08:36:55;8.65;;;4.13;;
20251;SDS011;10284;58.364;15.550;2023-06-22T08:39:21;29.40;;;5.43;;
20251;SDS011;10284;58.364;15.550;2023-06-22T08:41:47;6.05;;;4.05;;
20251;SDS011;10284;58.364;15.550;2023-06-22T08:44:13;10.07;;;4.13;;
20251;SDS011;10284;58.364;15.550;2023-06-22T08:46:38;12.32;;;3.97;;
20251;SDS011;10284;58.364;15.550;2023-06-22T08:49:05;8.43;;;4.13;;
20251;SDS011;10284;58.364;15.550;2023-06-22T08:51:31;7.18;;;4.13;;
20251;SDS011;10284;58.364;15.550;2023-06-22T08:53:57;10.05;;;4.20;;
20251;SDS011;10284;58.364;15.550;2023-06-22T08:56:22;9.82;;;3.80;;
20251;SDS011;10284;58.364;15.550;2023-06-22T08:58:48;7.85;;;4.00;;
20251;SDS011;10284;58.364;15.550;2023-06-22T09:01:13;6.50;;;3.90;;
20251;SDS011;10284;58.364;15.550;2023-06-22T09:03:40;6.13;;;3.88;;
20251;SDS011;10284;58.364;15.550;2023-06-22T09:06:06;8.60;;;3.70;;
20251;SDS011;10284;58.364;15.550;2023-06-22T09:08:34;8.75;;;4.78;;
20251;SDS011;10284;58.364;15.550;2023-06-22T09:11:00;8.38;;;3.88;;
20251;SDS011;10284;58.364;15.550;2023-06-22T09:13:25;6.00;;;3.80;;
20251;SDS011;10284;58.364;15.550;2023-06-22T09:15:51;9.82;;;3.97;;
20251;SDS011;10284;58.364;15.550;2023-06-22T09:18:17;30.83;;;4.93;;
20251;SDS011;10284;58.364;15.550;2023-06-22T09:20:42;5.80;;;3.50;;
20251;SDS011;10284;58.364;15.550;2023-06-22T09:23:08;8.00;;;4.07;;
20251;SDS011;10284;58.364;15.550;2023-06-22T09:25:34;7.38;;;3.47;;
20251;SDS011;10284;58.364;15.550;2023-06-22T09:27:59;8.20;;;4.13;;
20251;SDS011;10284;58.364;15.550;2023-06-22T09:30:24;8.05;;;3.97;;
20251;SDS011;10284;58.364;15.550;2023-06-22T09:32:50;7.15;;;3.80;;
20251;SDS011;10284;58.364;15.550;2023-06-22T09:35:16;8.57;;;3.72;;
20251;SDS011;10284;58.364;15.550;2023-06-22T09:37:41;7.20;;;3.88;;
20251;SDS011;10284;58.364;15.550;2023-06-22T09:40:07;4.65;;;3.65;;
20251;SDS011;10284;58.364;15.550;2023-06-22T09:42:37;5.72;;;3.58;;
20251;SDS011;10284;58.364;15.550;2023-06-22T09:45:03;9.23;;;3.88;;
20251;SDS011;10284;58.364;15.550;2023-06-22T09:47:29;7.85;;;4.43;;
20251;SDS011;10284;58.364;15.550;2023-06-22T09:49:54;7.63;;;4.10;;
20251;SDS011;10284;58.364;15.550;2023-06-22T09:52:20;6.28;;;4.10;;
20251;SDS011;10284;58.364;15.550;2023-06-22T09:54:48;8.18;;;3.90;;
20251;SDS011;10284;58.364;15.550;2023-06-22T09:57:14;8.68;;;3.55;;
20251;SDS011;10284;58.364;15.550;2023-06-22T09:59:39;9.32;;;3.53;;
20251;SDS011;10284;58.364;15.550;2023-06-22T10:02:05;7.72;;;3.60;;
20251;SDS011;10284;58.364;15.550;2023-06-22T10:04:31;8.65;;;3.80;;
20251;SDS011;10284;58.364;15.550;2023-06-22T10:06:57;10.80;;;3.63;;
20251;SDS011;10284;58.364;15.550;2023-06-22T10:09:22;6.03;;;3.92;;
20251;SDS011;10284;58.364;15.550;2023-06-22T10:11:48;7.03;;;3.90;;
20251;SDS011;10284;58.364;15.550;2023-06-22T10:14:13;5.75;;;3.28;;
20251;SDS011;10284;58.364;15.550;2023-06-22T10:16:39;5.68;;;3.47;;
20251;SDS011;10284;58.364;15.550;2023-06-22T10:19:06;4.05;;;3.42;;
20251;SDS011;10284;58.364;15.550;2023-06-22T10:21:31;6.43;;;3.60;;
20251;SDS011;10284;58.364;15.550;2023-06-22T10:23:57;6.03;;;3.42;;
20251;SDS011;10284;58.364;15.550;2023-06-22T10:26:24;11.32;;;3.63;;
20251;SDS011;10284;58.364;15.550;2023-06-22T10:28:49;7.22;;;3.55;;
20251;SDS011;10284;58.364;15.550;2023-06-22T10:31:15;5.82;;;3.22;;
20251;SDS011;10284;58.364;15.550;2023-06-22T10:33:41;5.03;;;3.45;;
20251;SDS011;10284;58.364;15.550;2023-06-22T10:36:09;7.68;;;3.72;;
20251;SDS011;10284;58.364;15.550;2023-06-22T10:38:35;6.55;;;3.25;;
20251;SDS011;10284;58.364;15.550;2023-06-22T10:41:00;8.15;;;3.45;;
20251;SDS011;10284;58.364;15.550;2023-06-22T10:43:25;8.25;;;3.25;;
20251;SDS011;10284;58.364;15.550;2023-06-22T10:45:51;7.53;;;3.60;;
20251;SDS011;10284;58.364;15.550;2023-06-22T10:48:16;7.70;;;3.95;;
20251;SDS011;10284;58.364;15.550;2023-06-22T10:50:42;5.68;;;3.33;;
20251;SDS011;10284;58.364;15.550;2023-06-22T10:53:07;7.30;;;3.42;;
20251;SDS011;10284;58.364;15.550;2023-06-22T10:55:32;5.13;;;3.25;;
20251;SDS011;10284;58.364;15.550;2023-06-22T10:57:58;5.80;;;2.88;;
20251;SDS011;10284;58.364;15.550;2023-06-22T11:00:23;6.30;;;3.47;;
20251;SDS011;10284;58.364;15.550;2023-06-22T11:02:49;6.00;;;3.20;;
20251;SDS011;10284;58.364;15.550;2023-06-22T11:05:14;7.38;;;3.47;;
20251;SDS011;10284;58.364;15.550;2023-06-22T11:07:43;7.55;;;3.63;;
20251;SDS011;10284;58.364;15.550;2023-06-22T11:10:09;5.82;;;3.30;;
20251;SDS011;10284;58.364;15.550;2023-06-22T11:12:35;8.65;;;3.65;;
20251;SDS011;10284;58.364;15.550;2023-06-22T11:15:01;6.72;;;3.08;;
20251;SDS011;10284;58.364;15.550;2023-06-22T11:17:26;7.43;;;3.45;;
20251;SDS011;10284;58.364;15.550;2023-06-22T11:19:52;7.50;;;3.38;;
20251;SDS011;10284;58.364;15.550;2023-06-22T11:22:17;7.70;;;3.35;;
20251;SDS011;10284;58.364;15.550;2023-06-22T11:24:42;6.97;;;3.20;;
20251;SDS011;10284;58.364;15.550;2023-06-22T11:27:08;7.00;;;3.63;;
20251;SDS011;10284;58.364;15.550;2023-06-22T11:29:33;5.93;;;3.20;;
20251;SDS011;10284;58.364;15.550;2023-06-22T11:31:59;5.90;;;3.20;;
20251;SDS011;10284;58.364;15.550;2023-06-22T11:34:24;9.02;;;3.28;;
20251;SDS011;10284;58.364;15.550;2023-06-22T11:36:50;5.45;;;2.92;;
20251;SDS011;10284;58.364;15.550;2023-06-22T11:39:15;5.55;;;3.03;;
20251;SDS011;10284;58.364;15.550;2023-06-22T11:41:40;5.78;;;2.80;;
20251;SDS011;10284;58.364;15.550;2023-06-22T11:44:07;4.85;;;3.30;;
20251;SDS011;10284;58.364;15.550;2023-06-22T11:46:32;4.55;;;3.30;;
20251;SDS011;10284;58.364;15.550;2023-06-22T11:48:58;5.07;;;3.28;;
20251;SDS011;10284;58.364;15.550;2023-06-22T11:51:23;7.25;;;3.25;;
20251;SDS011;10284;58.364;15.550;2023-06-22T11:53:49;7.30;;;3.42;;
20251;SDS011;10284;58.364;15.550;2023-06-22T11:56:14;6.72;;;3.25;;
20251;SDS011;10284;58.364;15.550;2023-06-22T11:58:40;9.15;;;3.05;;
20251;SDS011;10284;58.364;15.550;2023-06-22T12:01:05;7.97;;;3.45;;
20251;SDS011;10284;58.364;15.550;2023-06-22T12:03:31;3.78;;;2.95;;
20251;SDS011;10284;58.364;15.550;2023-06-22T12:05:56;4.38;;;3.13;;
20251;SDS011;10284;58.364;15.550;2023-06-22T12:08:21;7.25;;;3.25;;
20251;SDS011;10284;58.364;15.550;2023-06-22T12:10:47;4.60;;;3.05;;
20251;SDS011;10284;58.364;15.550;2023-06-22T12:13:14;8.95;;;3.53;;
20251;SDS011;10284;58.364;15.550;2023-06-22T12:15:40;5.32;;;3.58;;
20251;SDS011;10284;58.364;15.550;2023-06-22T12:18:05;7.65;;;3.10;;
20251;SDS011;10284;58.364;15.550;2023-06-22T12:20:31;5.72;;;3.22;;
20251;SDS011;10284;58.364;15.550;2023-06-22T12:22:58;5.72;;;3.50;;
20251;SDS011;10284;58.364;15.550;2023-06-22T12:25:23;5.45;;;3.00;;
20251;SDS011;10284;58.364;15.550;2023-06-22T12:27:49;7.70;;;3.33;;
20251;SDS011;10284;58.364;15.550;2023-06-22T12:30:15;5.20;;;3.08;;
20251;SDS011;10284;58.364;15.550;2023-06-22T12:32:41;6.15;;;3.47;;
20251;SDS011;10284;58.364;15.550;2023-06-22T12:35:06;8.93;;;3.35;;
20251;SDS011;10284;58.364;15.550;2023-06-22T12:37:37;6.05;;;3.17;;
20251;SDS011;10284;58.364;15.550;2023-06-22T12:40:02;6.18;;;3.45;;
20251;SDS011;10284;58.364;15.550;2023-06-22T12:42:29;6.13;;;3.17;;
20251;SDS011;10284;58.364;15.550;2023-06-22T12:44:54;5.55;;;3.20;;
20251;SDS011;10284;58.364;15.550;2023-06-22T12:47:20;7.20;;;3.15;;
20251;SDS011;10284;58.364;15.550;2023-06-22T12:49:45;4.13;;;3.03;;
20251;SDS011;10284;58.364;15.550;2023-06-22T12:52:10;5.68;;;3.45;;
20251;SDS011;10284;58.364;15.550;2023-06-22T12:54:36;5.82;;;3.28;;
20251;SDS011;10284;58.364;15.550;2023-06-22T12:57:02;6.82;;;3.42;;
20251;SDS011;10284;58.364;15.550;2023-06-22T12:59:27;4.40;;;2.72;;
20251;SDS011;10284;58.364;15.550;2023-06-22T13:01:52;6.95;;;3.35;;
20251;SDS011;10284;58.364;15.550;2023-06-22T13:04:18;4.25;;;3.17;;
20251;SDS011;10284;58.364;15.550;2023-06-22T13:06:47;4.13;;;2.80;;
20251;SDS011;10284;58.364;15.550;2023-06-22T13:09:17;7.05;;;3.17;;
20251;SDS011;10284;58.364;15.550;2023-06-22T13:11:43;4.85;;;2.83;;
20251;SDS011;10284;58.364;15.550;2023-06-22T13:14:08;5.68;;;3.10;;
20251;SDS011;10284;58.364;15.550;2023-06-22T13:16:34;7.20;;;3.15;;
20251;SDS011;10284;58.364;15.550;2023-06-22T13:18:59;4.70;;;2.90;;
20251;SDS011;10284;58.364;15.550;2023-06-22T13:21:25;5.60;;;3.10;;
20251;SDS011;10284;58.364;15.550;2023-06-22T13:23:51;6.05;;;2.60;;
20251;SDS011;10284;58.364;15.550;2023-06-22T13:26:16;6.22;;;2.97;;
20251;SDS011;10284;58.364;15.550;2023-06-22T13:28:41;7.82;;;3.13;;
20251;SDS011;10284;58.364;15.550;2023-06-22T13:31:07;8.13;;;3.10;;
20251;SDS011;10284;58.364;15.550;2023-06-22T13:33:32;4.78;;;2.95;;
20251;SDS011;10284;58.364;15.550;2023-06-22T13:35:58;6.90;;;2.88;;
20251;SDS011;10284;58.364;15.550;2023-06-22T13:38:23;5.22;;;2.97;;
20251;SDS011;10284;58.364;15.550;2023-06-22T13:40:49;4.20;;;2.70;;
20251;SDS011;10284;58.364;15.550;2023-06-22T13:43:15;5.47;;;3.00;;
20251;SDS011;10284;58.364;15.550;2023-06-22T13:45:41;8.02;;;3.00;;
20251;SDS011;10284;58.364;15.550;2023-06-22T13:48:06;3.65;;;3.03;;
20251;SDS011;10284;58.364;15.550;2023-06-22T13:50:32;4.68;;;3.10;;
20251;SDS011;10284;58.364;15.550;2023-06-22T13:52:57;5.03;;;2.63;;
20251;SDS011;10284;58.364;15.550;2023-06-22T13:55:23;3.45;;;2.80;;
20251;SDS011;10284;58.364;15.550;2023-06-22T13:57:48;3.15;;;2.45;;
20251;SDS011;10284;58.364;15.550;2023-06-22T14:00:14;5.63;;;2.92;;
20251;SDS011;10284;58.364;15.550;2023-06-22T14:02:39;6.82;;;3.22;;
20251;SDS011;10284;58.364;15.550;2023-06-22T14:05:06;3.60;;;3.10;;
20251;SDS011;10284;58.364;15.550;2023-06-22T14:07:32;4.20;;;2.95;;
20251;SDS011;10284;58.364;15.550;2023-06-22T14:09:57;3.67;;;2.95;;
20251;SDS011;10284;58.364;15.550;2023-06-22T14:12:23;4.30;;;3.15;;
20251;SDS011;10284;58.364;15.550;2023-06-22T14:14:49;5.03;;;3.17;;
20251;SDS011;10284;58.364;15.550;2023-06-22T14:17:14;7.50;;;3.28;;
20251;SDS011;10284;58.364;15.550;2023-06-22T14:19:40;4.75;;;2.97;;
20251;SDS011;10284;58.364;15.550;2023-06-22T14:22:05;4.72;;;3.15;;
20251;SDS011;10284;58.364;15.550;2023-06-22T14:24:31;3.53;;;2.63;;
20251;SDS011;10284;58.364;15.550;2023-06-22T14:26:56;4.13;;;3.00;;
20251;SDS011;10284;58.364;15.550;2023-06-22T14:29:22;4.75;;;2.90;;
20251;SDS011;10284;58.364;15.550;2023-06-22T14:31:48;3.60;;;2.63;;
20251;SDS011;10284;58.364;15.550;2023-06-22T14:34:14;6.03;;;2.55;;
20251;SDS011;10284;58.364;15.550;2023-06-22T14:36:40;4.38;;;3.00;;
20251;SDS011;10284;58.364;15.550;2023-06-22T14:39:05;6.13;;;2.90;;